Time;durP1;ratioP1;P1;durP2;ratioP2;P2;SDS_P1;SDS_P2;PMS_P1;PMS_P2;Temp;Humidity;BMP_temperature;BMP_pressure;BME280_temperature;BME280_humidity;BME280_pressure;Samples;Min_cycle;Max_cycle;Signal;HPM_P1;HPM_P2
2022/02/01 00:01:45;;;;;;;11.55;2.60;;;;;;;8.64;58.25;100807.50;4923863;28;119607;-88
2022/02/01 00:04:22;;;;;;;13.93;2.47;;;;;;;8.74;58.31;100813.88;4906608;28;122149;-88
2022/02/01 00:07:11;;;;;;;13.77;3.00;;;;;;;8.74;58.00;100808.41;4906882;28;123289;-86
2022/02/01 00:12:28;;;;;;;16.08;3.38;;;;;;;8.72;58.14;100797.88;4905436;28;121370;-89
2022/02/01 00:15:17;;;;;;;17.60;3.15;;;;;;;8.74;57.72;100813.88;4906466;28;122878;-91
2022/02/01 00:20:35;;;;;;;20.13;3.30;;;;;;;8.70;58.11;100813.97;4925919;28;123066;-88
2022/02/01 00:33:17;;;;;;;;;;;;;;;8.77;58.37;100824.72;4912241;28;122228;-89
2022/02/01 00:36:38;;;;;;;14.95;3.25;;;;;;;8.75;58.19;100794.28;4915172;28;123394;-88
2022/02/01 00:39:08;;;;;;;21.20;3.55;;;;;;;8.80;57.88;100803.94;4911371;28;120553;-88
2022/02/01 00:41:39;;;;;;;16.20;3.28;;;;;;;8.78;57.63;100820.03;4889780;28;123032;-88
2022/02/01 00:44:05;;;;;;;16.98;3.75;;;;;;;8.47;57.49;100784.16;4903106;28;120326;-90
2022/02/01 00:46:31;;;;;;;13.88;3.00;;;;;;;8.70;57.81;100813.97;4893106;28;122304;-87
2022/02/01 00:48:56;;;;;;;19.40;3.30;;;;;;;8.69;58.76;100815.16;4912859;28;123397;-88
2022/02/01 00:51:23;;;;;;;16.00;3.50;;;;;;;8.34;58.66;100770.47;4909926;28;121810;-87
2022/02/01 00:53:51;;;;;;;18.60;3.25;;;;;;;8.63;57.97;100807.94;4903602;28;121701;-89
2022/02/01 00:56:17;;;;;;;18.98;3.38;;;;;;;8.63;58.46;100813.41;4891714;28;122814;-89
2022/02/01 00:58:42;;;;;;;18.80;3.00;;;;;;;8.64;57.60;100812.97;4920770;28;120392;-88
2022/02/01 01:01:08;;;;;;;16.65;3.22;;;;;;;8.62;58.11;100804.44;4893552;28;122707;-91
2022/02/01 01:03:34;;;;;;;20.08;3.80;;;;;;;8.65;57.77;100808.28;4907818;28;119977;-90
2022/02/01 01:06:00;;;;;;;16.38;3.60;;;;;;;8.41;57.58;100770.25;4911191;28;122251;-94
2022/02/01 01:08:27;;;;;;;18.33;3.25;;;;;;;8.70;57.97;100800.28;4930103;28;120584;-93
2022/02/01 01:10:55;;;;;;;19.20;3.47;;;;;;;8.54;57.63;100764.84;4914110;28;120749;-93
2022/02/01 01:16:33;;;;;;;20.75;4.43;;;;;;;8.69;57.85;100790.56;4924502;28;120983;-93
2022/02/01 01:46:29;;;;;;;23.55;4.38;;;;;;;8.46;58.24;100727.94;4927826;28;121182;-92
2022/02/01 01:54:26;;;;;;;22.77;3.85;;;;;;;8.42;58.22;100725.31;4915217;28;120946;-93
2022/02/01 01:56:54;;;;;;;23.63;4.95;;;;;;;8.40;57.48;100719.53;4896903;28;122182;-90
2022/02/01 01:59:21;;;;;;;21.70;4.55;;;;;;;8.39;57.82;100709.78;4891104;28;122879;-90
2022/02/01 02:01:47;;;;;;;21.58;4.47;;;;;;;8.39;57.70;100704.31;4913378;28;120643;-89
2022/02/01 02:04:13;;;;;;;25.02;4.85;;;;;;;8.47;57.04;100724.78;4928990;28;120939;-94
2022/02/01 02:06:42;;;;;;;24.58;4.10;;;;;;;8.27;57.32;100707.75;4914375;28;122893;-95
2022/02/01 02:09:10;;;;;;;22.10;4.50;;;;;;;8.42;57.69;100736.25;4915044;28;119513;-88
2022/02/01 02:11:52;;;;;;;20.40;4.28;;;;;;;8.24;57.80;100716.81;4920422;28;122463;-91
2022/02/01 02:14:23;;;;;;;25.02;4.25;;;;;;;8.34;58.04;100717.75;4920208;28;119642;-91
2022/02/01 02:16:51;;;;;;;26.38;3.97;;;;;;;8.42;57.42;100717.13;4912835;28;121972;-93
2022/02/01 02:19:18;;;;;;;24.83;5.20;;;;;;;8.44;57.97;100724.88;4898398;28;123411;-94
2022/02/01 02:21:52;;;;;;;22.95;4.05;;;;;;;8.34;58.11;100715.03;4891146;28;120018;-94
2022/02/01 02:24:22;;;;;;;21.55;4.32;;;;;;;8.50;57.71;100721.16;4901773;28;122891;-91
2022/02/01 02:26:49;;;;;;;22.60;4.63;;;;;;;8.53;58.07;100723.06;4895806;28;123220;-91
2022/02/01 02:29:15;;;;;;;22.63;4.65;;;;;;;8.44;57.60;100709.25;4900997;28;119731;-93
2022/02/01 02:31:41;;;;;;;24.17;4.72;;;;;;;8.50;57.73;100723.13;4908178;28;122052;-93
2022/02/01 02:34:13;;;;;;;16.70;3.63;;;;;;;8.53;57.21;100723.06;4916376;28;123299;-92
2022/02/01 02:36:44;;;;;;;22.00;4.45;;;;;;;8.58;57.86;100729.94;4903428;28;121704;-91
2022/02/01 02:39:32;;;;;;;18.58;3.78;;;;;;;8.75;58.28;100733.34;4896395;28;123319;-91
2022/02/01 02:42:25;;;;;;;20.98;4.00;;;;;;;8.61;57.83;100721.66;4892664;28;119662;-88
2022/02/01 02:45:05;;;;;;;18.48;3.78;;;;;;;8.59;58.05;100715.84;4901425;28;121958;-92
2022/02/01 02:47:31;;;;;;;21.23;3.95;;;;;;;8.55;57.97;100712.47;4918938;28;123327;-94
2022/02/01 02:49:57;;;;;;;21.48;4.00;;;;;;;8.49;58.43;100714.19;4892036;28;120985;-91
2022/02/01 02:52:26;;;;;;;23.17;4.43;;;;;;;8.60;57.93;100725.59;4903354;28;120341;-93
2022/02/01 02:54:55;;;;;;;19.17;4.10;;;;;;;8.53;58.37;100712.13;4904145;28;123041;-91
2022/02/01 02:57:21;;;;;;;19.67;3.92;;;;;;;8.56;58.39;100699.56;4900767;28;122237;-92
2022/02/01 02:59:46;;;;;;;18.83;3.97;;;;;;;8.34;58.33;100666.59;4907409;28;123007;-94
2022/02/01 03:02:12;;;;;;;24.73;3.97;;;;;;;8.34;58.01;100654.91;4900324;28;120002;-94
2022/02/01 03:04:41;;;;;;;23.98;4.03;;;;;;;8.32;58.42;100653.34;4903657;28;121626;-93
2022/02/01 03:07:06;;;;;;;22.40;4.55;;;;;;;8.48;58.84;100676.34;4908741;28;123179;-94
2022/02/01 03:09:38;;;;;;;27.88;4.53;;;;;;;8.66;58.33;100698.47;4898471;28;120177;-95
2022/02/01 03:12:08;;;;;;;21.35;3.83;;;;;;;8.56;58.71;100689.38;4892082;28;121839;-92
2022/02/01 03:14:48;;;;;;;26.02;4.13;;;;;;;8.50;58.72;100682.91;4906639;28;122508;-93
2022/02/01 03:19:56;;;;;;;26.35;5.00;;;;;;;8.55;58.88;100687.84;4914273;28;122877;-92
2022/02/01 03:22:28;;;;;;;24.90;4.13;;;;;;;8.54;60.43;100683.59;4910417;28;119572;-94
2022/02/01 03:24:55;;;;;;;25.25;4.85;;;;;;;8.57;59.83;100674.50;4899781;28;122147;-89
2022/02/01 03:27:21;;;;;;;22.80;4.75;;;;;;;8.54;59.40;100663.69;4899539;28;121999;-92
2022/02/01 03:29:48;;;;;;;25.05;4.63;;;;;;;8.69;59.60;100674.94;4933452;28;120697;-92
2022/02/01 03:32:17;;;;;;;22.02;4.35;;;;;;;8.55;59.54;100654.28;4915757;28;121126;-94
2022/02/01 03:34:43;;;;;;;26.70;4.55;;;;;;;8.74;59.80;100666.94;4900774;28;123130;-90
2022/02/01 03:37:09;;;;;;;24.35;4.97;;;;;;;8.75;59.36;100662.25;4907643;28;119773;-91
2022/02/01 03:39:34;;;;;;;26.42;4.10;;;;;;;8.56;59.43;100623.75;4916811;28;122064;-91
2022/02/01 03:42:01;;;;;;;28.85;4.78;;;;;;;8.63;59.71;100638.41;4902765;28;120402;-91
2022/02/01 03:44:28;;;;;;;20.80;4.25;;;;;;;8.63;59.35;100632.94;4914933;28;122563;-90
2022/02/01 03:47:05;;;;;;;30.60;4.40;;;;;;;8.57;59.19;100617.09;4909984;28;122961;-91
2022/02/01 03:49:36;;;;;;;24.77;3.78;;;;;;;8.62;60.62;100632.19;4916059;28;119638;-93
2022/02/01 03:52:08;;;;;;;21.27;4.18;;;;;;;8.72;59.79;100630.31;4914142;28;121809;-93
2022/02/01 03:54:35;;;;;;;26.27;4.22;;;;;;;8.73;60.63;100635.34;4910737;28;122967;-93
2022/02/01 03:57:03;;;;;;;21.90;3.90;;;;;;;8.78;60.04;100632.06;4899288;28;120220;-91
2022/02/01 03:59:28;;;;;;;24.65;4.30;;;;;;;8.75;59.05;100602.84;4899365;28;122380;-94
2022/02/01 04:01:57;;;;;;;21.55;3.92;;;;;;;8.92;59.28;100633.56;4912390;28;123574;-91
2022/02/01 04:04:27;;;;;;;22.95;3.88;;;;;;;8.87;59.21;100617.72;4928917;28;119848;-92
2022/02/01 04:06:54;;;;;;;26.13;4.20;;;;;;;8.92;58.29;100625.38;4898427;28;122381;-91
2022/02/01 04:09:22;;;;;;;22.98;4.07;;;;;;;8.83;58.77;100597.94;4890503;28;119681;-88
2022/02/01 04:11:48;;;;;;;22.63;4.28;;;;;;;8.77;58.25;100583.28;4909498;28;120625;-92
2022/02/01 04:14:17;;;;;;;24.27;4.28;;;;;;;8.91;58.44;100615.63;4914304;28;123849;-91
2022/02/01 04:16:45;;;;;;;22.80;3.95;;;;;;;8.82;58.42;100594.44;4916731;28;119425;-91
2022/02/01 04:19:12;;;;;;;22.38;4.03;;;;;;;8.91;58.43;100612.91;4897298;28;121910;-91
2022/02/01 04:21:41;;;;;;;21.05;4.22;;;;;;;8.83;58.03;100597.94;4910725;28;123148;-91
2022/02/01 04:24:06;;;;;;;22.05;3.90;;;;;;;8.91;58.39;100605.47;4905829;28;119854;-92
2022/02/01 04:26:35;;;;;;;19.73;3.95;;;;;;;8.93;58.64;100615.97;4914246;28;121944;-95
2022/02/01 04:29:01;;;;;;;21.48;3.42;;;;;;;9.00;58.63;100623.19;4904364;28;121413;-92
2022/02/01 04:31:26;;;;;;;19.70;3.58;;;;;;;8.99;58.22;100622.44;4887686;28;121882;-93
2022/02/01 04:33:52;;;;;;;17.48;3.65;;;;;;;8.90;58.10;100612.13;4897515;28;123238;-90
2022/02/01 04:36:17;;;;;;;19.33;3.35;;;;;;;8.95;58.11;100610.81;4900818;28;119688;-92
2022/02/01 04:38:50;;;;;;;24.02;4.10;;;;;;;8.97;58.31;100607.63;4886499;28;122208;-91
2022/02/01 04:41:16;;;;;;;28.83;4.10;;;;;;;8.93;58.34;100608.50;4900802;28;123054;-91
2022/02/01 04:43:42;;;;;;;21.70;3.58;;;;;;;8.98;58.83;100611.91;4886927;28;120197;-91
2022/02/01 04:46:10;;;;;;;18.80;3.67;;;;;;;9.09;58.44;100626.00;4918551;28;121953;-92
2022/02/01 04:48:38;;;;;;;18.50;3.72;;;;;;;9.07;58.38;100629.19;4910156;28;119747;-92
2022/02/01 04:51:04;;;;;;;19.30;3.40;;;;;;;9.00;58.66;100618.47;4891438;28;122325;-92
2022/02/01 04:53:30;;;;;;;21.73;3.72;;;;;;;9.08;58.98;100624.47;4911458;28;120271;-92
2022/02/01 04:55:55;;;;;;;16.63;3.35;;;;;;;9.20;59.34;100632.66;4884534;28;121259;-92
2022/02/01 04:58:22;;;;;;;16.27;3.35;;;;;;;9.20;58.95;100627.16;4907821;28;121888;-92
2022/02/01 05:00:48;;;;;;;19.30;3.58;;;;;;;9.13;58.45;100610.22;4896097;28;122022;-92
2022/02/01 05:03:14;;;;;;;18.52;3.58;;;;;;;9.04;58.45;100599.97;4894426;28;119584;-93
2022/02/01 05:05:40;;;;;;;17.52;3.78;;;;;;;9.04;58.79;100582.78;4912393;28;122111;-90
2022/02/01 05:08:08;;;;;;;24.10;3.72;;;;;;;9.23;58.81;100620.84;4908300;28;119821;-92
2022/02/01 05:10:35;;;;;;;17.77;2.90;;;;;;;9.26;58.11;100618.44;4900172;28;121884;-91
2022/02/01 05:16:00;;;;;;;19.88;3.25;;;;;;;9.27;57.94;100612.50;4911510;28;122168;-91
2022/02/01 05:18:29;;;;;;;20.42;3.75;;;;;;;9.13;58.32;100591.84;4905374;28;122406;-90
2022/02/01 05:21:04;;;;;;;18.95;3.00;;;;;;;9.09;57.84;100582.22;4927002;28;121989;-89
2022/02/01 05:23:29;;;;;;;15.52;2.60;;;;;;;9.08;58.02;100567.03;4920261;28;119490;-90
2022/02/01 05:25:57;;;;;;;17.23;3.03;;;;;;;9.26;58.05;100596.53;4913451;28;122195;-92
2022/02/01 05:28:22;;;;;;;17.70;2.80;;;;;;;9.26;58.57;100600.03;4896329;28;122002;-92
2022/02/01 05:30:49;;;;;;;15.93;2.60;;;;;;;9.29;58.42;100585.47;4905481;28;120877;-91
2022/02/01 05:33:14;;;;;;;18.80;3.10;;;;;;;9.29;58.57;100585.47;4906569;28;123112;-93
2022/02/01 05:35:40;;;;;;;21.67;4.07;;;;;;;9.22;58.27;100567.28;4923575;28;119682;-90
2022/02/01 05:38:06;;;;;;;16.98;3.03;;;;;;;9.30;58.44;100567.06;4927800;28;119800;-92
2022/02/01 05:40:32;;;;;;;21.13;3.33;;;;;;;9.25;58.69;100540.25;4926256;28;119990;-92
2022/02/01 05:43:04;;;;;;;23.98;3.40;;;;;;;9.26;58.60;100541.78;4930318;28;119517;-91
2022/02/01 05:45:33;;;;;;;22.38;6.25;;;;;;;9.14;59.04;100514.00;4925431;28;120182;-90
2022/02/01 05:48:04;;;;;;;16.58;2.85;;;;;;;9.19;58.48;100516.19;4922075;28;119982;-90
2022/02/01 05:50:31;;;;;;;19.30;3.78;;;;;;;9.29;58.84;100529.94;4929650;28;119945;-88
2022/02/01 05:53:00;;;;;;;17.80;3.10;;;;;;;9.23;58.81;100505.91;4905583;28;122893;-91
2022/02/01 05:55:26;;;;;;;19.40;3.10;;;;;;;8.92;59.11;100469.44;4899147;28;119837;-90
2022/02/01 05:57:53;;;;;;;23.95;3.85;;;;;;;9.33;59.22;100525.88;4907246;28;122371;-90
2022/02/01 06:00:20;;;;;;;20.20;3.88;;;;;;;9.30;58.82;100509.59;4917815;28;122981;-91
2022/02/01 06:02:46;;;;;;;22.40;3.92;;;;;;;9.35;59.08;100511.75;4925373;28;119731;-89
2022/02/01 06:05:13;;;;;;;23.45;3.90;;;;;;;9.10;59.04;100469.59;4937619;28;121033;-90
2022/02/01 06:07:39;;;;;;;15.52;3.25;;;;;;;9.28;59.17;100499.06;4923210;28;120326;-90
2022/02/01 06:10:05;;;;;;;17.45;3.08;;;;;;;9.37;59.57;100506.59;4930382;28;120099;-91
2022/02/01 06:12:45;;;;;;;23.13;4.15;;;;;;;9.44;59.58;100507.09;4927113;28;120325;-92
2022/02/01 06:15:16;;;;;;;18.55;3.72;;;;;;;9.44;59.06;100507.09;4934057;28;119545;-90
2022/02/01 06:17:43;;;;;;;20.15;3.75;;;;;;;9.46;59.79;100506.63;4931950;28;122162;-93
2022/02/01 06:20:13;;;;;;;17.00;3.83;;;;;;;9.35;59.52;100484.38;4932043;28;120378;-94
2022/02/01 06:22:39;;;;;;;21.88;3.50;;;;;;;9.32;59.66;100474.31;4926161;28;119355;-90
2022/02/01 06:25:06;;;;;;;17.65;4.13;;;;;;;9.43;59.62;100475.44;4914051;28;122285;-93
2022/02/01 06:27:32;;;;;;;19.10;3.55;;;;;;;9.54;60.17;100480.53;4919316;28;119796;-91
2022/02/01 06:30:01;;;;;;;22.05;3.53;;;;;;;9.56;59.42;100486.31;4912657;28;119495;-91
2022/02/01 06:32:32;;;;;;;19.33;3.38;;;;;;;9.23;60.57;100429.25;4919227;28;119783;-91
2022/02/01 06:35:00;;;;;;;14.00;3.20;;;;;;;9.51;60.57;100449.34;4919844;28;120381;-92
2022/02/01 06:37:26;;;;;;;15.13;3.00;;;;;;;9.59;60.33;100455.31;4903802;28;122202;-92
2022/02/01 06:39:52;;;;;;;19.15;3.22;;;;;;;9.58;60.40;100450.28;4891968;28;123328;-89
2022/02/01 06:42:18;;;;;;;22.40;4.35;;;;;;;9.40;60.08;100412.63;4927163;28;119954;-90
2022/02/01 06:44:44;;;;;;;21.25;3.63;;;;;;;9.58;60.16;100437.34;4912123;28;120818;-93
2022/02/01 06:47:09;;;;;;;17.63;3.08;;;;;;;9.46;60.16;100408.88;4926585;28;123299;-92
2022/02/01 06:49:35;;;;;;;19.05;3.33;;;;;;;9.59;59.74;100424.44;4917383;28;119623;-92
2022/02/01 06:52:04;;;;;;;18.10;3.85;;;;;;;9.57;59.61;100402.22;4897574;28;122366;-91
2022/02/01 06:54:33;;;;;;;19.25;3.45;;;;;;;9.46;60.91;100389.69;4927140;28;120056;-89
2022/02/01 06:56:59;;;;;;;24.05;3.95;;;;;;;9.60;60.26;100398.56;4931296;28;120036;-93
2022/02/01 06:59:25;;;;;;;18.83;3.55;;;;;;;9.63;60.22;100400.41;4903942;28;123810;-92
2022/02/01 07:01:50;;;;;;;22.02;3.65;;;;;;;9.51;60.39;100369.94;4923774;28;119550;-88
2022/02/01 07:04:16;;;;;;;20.23;3.35;;;;;;;9.68;60.33;100386.13;4913563;28;122055;-92
2022/02/01 07:06:45;;;;;;;19.02;3.75;;;;;;;9.70;59.95;100375.47;4904129;28;122723;-90
2022/02/01 07:09:10;;;;;;;19.15;3.78;;;;;;;9.49;59.98;100330.53;4906881;28;119769;-87
2022/02/01 07:11:39;;;;;;;23.83;3.92;;;;;;;9.61;60.24;100334.38;4922737;28;122018;-91
2022/02/01 07:14:05;;;;;;;18.98;3.53;;;;;;;9.71;60.02;100336.69;4900275;28;123189;-89
2022/02/01 07:16:30;;;;;;;18.40;3.17;;;;;;;9.61;61.11;100315.19;4912556;28;119890;-91
2022/02/01 07:18:56;;;;;;;19.15;3.83;;;;;;;9.72;60.50;100321.78;4926481;28;120642;-90
2022/02/01 07:21:24;;;;;;;17.75;3.05;;;;;;;9.77;60.30;100332.16;4919031;28;119747;-92
2022/02/01 07:23:49;;;;;;;18.20;3.25;;;;;;;9.74;60.42;100335.03;4900130;28;122453;-92
2022/02/01 07:26:18;;;;;;;18.27;3.53;;;;;;;9.53;61.21;100298.31;4932628;28;120663;-92
2022/02/01 07:28:45;;;;;;;17.80;3.47;;;;;;;9.75;60.78;100306.44;4925599;28;121169;-91
2022/02/01 07:31:11;;;;;;;16.50;3.88;;;;;;;9.64;62.41;100282.19;4893908;28;120944;-91
2022/02/01 07:33:37;;;;;;;22.73;4.18;;;;;;;9.84;61.19;100301.72;4915683;28;123347;-89
2022/02/01 07:36:04;;;;;;;16.70;3.10;;;;;;;9.89;61.61;100294.88;4915343;28;120639;-92
2022/02/01 07:38:30;;;;;;;16.10;3.05;;;;;;;9.83;61.24;100267.31;4905518;28;122751;-88
2022/02/01 07:40:57;;;;;;;18.05;3.25;;;;;;;9.73;60.89;100246.63;4911271;28;119956;-92
2022/02/01 07:43:30;;;;;;;16.60;3.22;;;;;;;9.91;61.36;100267.03;4894509;28;120605;-92
2022/02/01 07:45:57;;;;;;;18.00;3.10;;;;;;;9.95;61.66;100262.94;4910412;28;123019;-90
2022/02/01 07:48:23;;;;;;;16.30;3.05;;;;;;;9.67;60.63;100214.81;4923837;28;119762;-92
2022/02/01 07:50:49;;;;;;;23.58;3.40;;;;;;;9.77;61.04;100216.34;4895515;28;122386;-90
2022/02/01 07:53:14;;;;;;;14.00;2.67;;;;;;;9.95;61.72;100241.03;4892481;28;123079;-91
2022/02/01 07:55:42;;;;;;;16.48;3.17;;;;;;;9.77;62.24;100192.47;4912936;28;119959;-91
2022/02/01 07:58:08;;;;;;;19.55;3.08;;;;;;;9.91;61.53;100202.03;4906352;28;122117;-92
2022/02/01 08:00:34;;;;;;;14.35;2.72;;;;;;;9.86;61.47;100178.00;4927214;28;123350;-91
2022/02/01 08:02:59;;;;;;;11.13;2.53;;;;;;;9.98;61.31;100195.50;4920373;28;119564;-91
2022/02/01 08:05:29;;;;;;;13.20;2.38;;;;;;;9.93;61.47;100183.16;4924881;28;123076;-90
2022/02/01 08:07:55;;;;;;;13.15;2.72;;;;;;;10.00;61.67;100184.84;4921511;28;119599;-89
2022/02/01 08:10:21;;;;;;;16.15;3.00;;;;;;;9.95;61.44;100186.22;4913863;28;122282;-89
2022/02/01 08:20:34;;;;;;;18.33;3.55;;;;;;;10.20;62.53;100157.72;4925695;28;121242;-92
2022/02/01 08:23:03;;;;;;;16.42;3.33;;;;;;;10.19;62.05;100144.47;4930713;28;120282;-92
2022/02/01 08:25:31;;;;;;;19.52;3.58;;;;;;;10.16;62.71;100132.44;4922123;28;120366;-92
2022/02/01 08:28:00;;;;;;;20.30;3.47;;;;;;;10.31;63.13;100141.56;4905909;28;121353;-93
2022/02/01 08:30:26;;;;;;;16.73;3.40;;;;;;;10.16;63.65;100102.28;4910322;28;122913;-90
2022/02/01 08:32:52;;;;;;;18.05;3.42;;;;;;;10.22;63.47;100097.75;4908104;28;123167;-87
2022/02/01 08:35:19;;;;;;;21.67;3.83;;;;;;;10.41;62.72;100114.91;4895902;28;119744;-91
2022/02/01 08:37:44;;;;;;;22.20;3.40;;;;;;;10.36;62.44;100105.31;4913493;28;121050;-92
2022/02/01 08:40:13;;;;;;;20.00;3.95;;;;;;;10.24;63.24;100084.34;4916582;28;122178;-93
2022/02/01 08:42:46;;;;;;;23.58;4.60;;;;;;;10.38;62.94;100086.41;4925664;28;120709;-92
2022/02/01 08:45:14;;;;;;;22.30;4.30;;;;;;;10.44;62.61;100087.31;4910005;28;122337;-90
2022/02/01 08:47:40;;;;;;;22.25;3.85;;;;;;;10.38;64.62;100067.22;4897464;28;120378;-91
2022/02/01 08:50:07;;;;;;;19.35;3.88;;;;;;;10.26;62.96;100040.03;4890459;28;122302;-91
2022/02/01 08:55:02;;;;;;;27.80;4.43;;;;;;;10.22;63.21;100015.53;4907842;28;119799;-91
2022/02/01 08:57:31;;;;;;;21.75;4.95;;;;;;;10.44;64.08;100040.72;4909027;28;120460;-91
2022/02/01 09:00:03;;;;;;;20.80;4.05;;;;;;;10.48;64.17;100040.53;4895374;28;124137;-90
2022/02/01 09:02:29;;;;;;;22.55;4.32;;;;;;;10.39;63.38;100027.63;4898222;28;122542;-90
2022/02/01 09:04:59;;;;;;;22.60;3.65;;;;;;;10.36;64.23;100025.81;4924651;28;122162;-92
2022/02/01 09:07:25;;;;;;;22.92;3.85;;;;;;;10.34;65.64;100006.31;4896548;28;119813;-92
2022/02/01 09:09:55;;;;;;;19.63;3.50;;;;;;;10.11;65.00;99963.16;4908936;28;120996;-91
2022/02/01 09:12:21;;;;;;;15.75;3.47;;;;;;;10.34;65.28;99978.91;4908432;28;123091;-93
2022/02/01 09:14:48;;;;;;;18.55;3.60;;;;;;;10.31;65.35;99952.44;4905537;28;119975;-88
2022/02/01 09:17:15;;;;;;;10.90;2.95;;;;;;;10.37;64.94;99942.34;4902633;28;121760;-92
2022/02/01 09:19:44;;;;;;;16.60;3.75;;;;;;;10.26;65.66;99920.19;4902571;28;123045;-91
2022/02/01 09:22:11;;;;;;;16.25;3.03;;;;;;;10.43;65.93;99924.06;4906362;28;121514;-93
2022/02/01 09:24:37;;;;;;;8.63;2.25;;;;;;;10.26;65.95;99898.25;4904778;28;119886;-93
2022/02/01 09:27:03;;;;;;;7.50;2.30;;;;;;;10.47;65.40;99912.16;4905715;28;123537;-91
2022/02/01 09:29:29;;;;;;;9.27;2.00;;;;;;;10.19;65.80;99860.22;4903271;28;119840;-89
2022/02/01 09:31:55;;;;;;;8.48;1.90;;;;;;;10.39;65.58;99873.34;4917245;28;120194;-91
2022/02/01 09:34:22;;;;;;;9.35;2.22;;;;;;;10.45;66.12;99855.78;4916469;28;119787;-90
2022/02/01 09:36:50;;;;;;;9.98;2.00;;;;;;;10.08;65.77;99805.94;4922149;28;120728;-92
2022/02/01 09:39:17;;;;;;;8.60;2.10;;;;;;;10.18;65.91;99814.88;4904065;28;123524;-93
2022/02/01 09:41:42;;;;;;;6.70;1.63;;;;;;;10.19;66.04;99810.13;4917074;28;121461;-88
2022/02/01 09:44:08;;;;;;;6.97;1.75;;;;;;;10.49;66.65;99828.19;4905855;28;119909;-92
2022/02/01 09:46:37;;;;;;;6.28;1.50;;;;;;;10.51;67.26;99825.75;4923717;28;122258;-91
2022/02/01 09:49:04;;;;;;;6.97;1.70;;;;;;;10.26;67.44;99776.91;4896230;28;120113;-92
2022/02/01 09:51:29;;;;;;;7.10;1.85;;;;;;;10.39;67.70;99813.78;4896385;28;123484;-92
2022/02/01 09:53:55;;;;;;;6.18;1.50;;;;;;;10.42;67.59;99801.16;4947525;28;120002;-91
2022/02/01 09:56:21;;;;;;;6.78;1.85;;;;;;;10.45;67.66;99800.97;4909385;28;122378;-92
2022/02/01 09:58:49;;;;;;;4.72;1.67;;;;;;;10.29;67.85;99751.31;4921830;28;121940;-91
2022/02/01 10:01:19;;;;;;;4.95;1.63;;;;;;;10.51;68.24;99753.69;4928647;28;121495;-91
2022/02/01 10:03:48;;;;;;;7.22;1.70;;;;;;;10.39;68.00;99719.81;4911492;28;123103;-92
2022/02/01 10:06:15;;;;;;;5.15;1.60;;;;;;;10.64;67.90;99732.97;4897187;28;122718;-89
2022/02/01 10:08:46;;;;;;;4.50;1.50;;;;;;;10.25;67.68;99682.97;4924476;28;120419;-91
2022/02/01 10:11:13;;;;;;;4.68;1.70;;;;;;;10.66;67.73;99721.56;4926605;28;120841;-92
2022/02/01 10:13:42;;;;;;;4.55;1.40;;;;;;;10.73;69.00;99723.91;4895391;28;121470;-91
2022/02/01 10:16:26;;;;;;;4.80;2.03;;;;;;;10.50;68.13;99681.66;4920124;28;119861;-93
2022/02/01 10:18:52;;;;;;;5.30;2.15;;;;;;;10.55;67.42;99677.47;4906411;28;123078;-91
2022/02/01 10:21:18;;;;;;;2.42;1.40;;;;;;;10.45;67.23;99650.19;4931519;28;119639;-92
2022/02/01 10:23:45;;;;;;;5.05;1.90;;;;;;;10.25;68.04;99633.66;4924222;28;122662;-93
2022/02/01 10:26:10;;;;;;;3.90;1.67;;;;;;;10.60;67.49;99660.34;4909871;28;123963;-91
2022/02/01 10:28:50;;;;;;;2.63;1.50;;;;;;;10.56;67.84;99660.56;4912189;28;120003;-92
2022/02/01 10:31:23;;;;;;;2.65;1.70;;;;;;;10.47;68.17;99621.53;4905408;28;121874;-93
2022/02/01 10:33:54;;;;;;;4.13;1.80;;;;;;;10.26;67.64;99594.06;4910545;28;121698;-92
2022/02/01 10:36:20;;;;;;;2.20;1.40;;;;;;;10.37;69.28;99607.16;4908612;28;122245;-94
2022/02/01 10:38:47;;;;;;;4.50;1.95;;;;;;;10.29;69.42;99584.88;4911627;28;122050;-91
2022/02/01 10:41:16;;;;;;;4.57;1.88;;;;;;;10.57;70.53;99596.25;4923619;28;119886;-92
2022/02/01 10:43:42;;;;;;;6.40;1.40;;;;;;;10.41;70.11;99559.16;4908744;28;122160;-92
2022/02/01 10:46:12;;;;;;;3.17;1.42;;;;;;;10.68;69.39;99592.94;4934509;28;123101;-91
2022/02/01 10:48:45;;;;;;;2.22;1.17;;;;;;;10.60;69.50;99575.34;4891747;28;119642;-90
2022/02/01 10:51:14;;;;;;;3.97;1.77;;;;;;;10.69;71.20;99583.47;4906352;28;122440;-92
2022/02/01 10:53:41;;;;;;;4.78;1.80;;;;;;;10.61;70.76;99544.72;4910717;28;122828;-91
2022/02/01 10:56:16;;;;;;;5.72;1.50;;;;;;;10.77;71.58;99557.16;4928052;28;120469;-93
2022/02/01 10:58:43;;;;;;;6.05;2.10;;;;;;;11.03;71.84;99562.72;4907394;28;124010;-92
2022/02/01 11:01:10;;;;;;;7.53;1.80;;;;;;;10.89;72.66;99514.94;4892359;28;120033;-91
2022/02/01 11:03:45;;;;;;;7.72;2.00;;;;;;;11.20;72.39;99543.72;4923658;28;120828;-92
2022/02/01 11:06:12;;;;;;;10.10;1.92;;;;;;;11.31;71.93;99532.84;4912162;28;122221;-91
2022/02/01 11:08:40;;;;;;;9.88;2.53;;;;;;;11.40;71.34;99521.75;4897845;28;120231;-91
2022/02/01 11:11:07;;;;;;;9.18;2.45;;;;;;;11.43;70.62;99501.56;4908529;28;121867;-91
2022/02/01 11:13:41;;;;;;;9.70;2.45;;;;;;;11.56;70.91;99510.16;4913608;28;122901;-92
2022/02/01 11:16:11;;;;;;;14.27;2.47;;;;;;;11.48;71.18;99458.91;4931853;28;120713;-90
2022/02/01 11:18:37;;;;;;;15.45;3.15;;;;;;;11.63;70.45;99482.28;4894063;28;123574;-90
2022/02/01 11:21:02;;;;;;;18.92;3.15;;;;;;;11.86;71.02;99493.47;4897157;28;119700;-95
2022/02/01 11:23:46;;;;;;;17.55;3.92;;;;;;;11.80;70.05;99484.41;4894785;28;122341;-94
2022/02/01 11:26:31;;;;;;;22.17;4.00;;;;;;;11.98;69.64;99500.56;4905386;28;120746;-90
2022/02/01 11:31:42;;;;;;;22.15;3.90;;;;;;;11.99;69.76;99466.34;4925481;28;121879;-91
2022/02/01 11:34:25;;;;;;;24.77;4.72;;;;;;;12.10;69.38;99474.69;4891988;28;123576;-90
2022/02/01 11:37:00;;;;;;;24.17;4.57;;;;;;;12.12;69.36;99466.69;4945157;28;120017;-85
2022/02/01 11:39:26;;;;;;;28.40;5.03;;;;;;;12.15;69.61;99465.69;4914032;28;124556;-92
2022/02/01 11:41:53;;;;;;;25.83;5.78;;;;;;;12.23;68.72;99450.25;4905606;28;120406;-91
2022/02/01 11:44:20;;;;;;;31.95;6.07;;;;;;;12.06;68.67;99423.91;4909982;28;122247;-90
2022/02/01 11:47:06;;;;;;;31.17;6.18;;;;;;;12.31;68.80;99422.31;4907885;28;123312;-93
2022/02/01 11:49:33;;;;;;;31.95;6.05;;;;;;;12.06;69.43;99390.91;4923430;28;119921;-93
2022/02/01 11:52:14;;;;;;;33.13;6.82;;;;;;;12.38;68.46;99416.34;4910944;28;121115;-91
2022/02/01 11:54:47;;;;;;;42.10;7.70;;;;;;;12.27;68.58;99401.28;4916055;28;121952;-91
2022/02/01 11:57:18;;;;;;;39.53;7.35;;;;;;;12.36;68.00;99402.34;4928778;28;120012;-96
2022/02/01 11:59:50;;;;;;;39.08;6.07;;;;;;;12.43;68.88;99423.88;4893208;28;122368;-91
2022/02/01 12:02:24;;;;;;;45.45;7.82;;;;;;;12.46;68.24;99401.63;4896347;28;124599;-93
2022/02/01 12:04:50;;;;;;;43.97;7.30;;;;;;;12.40;67.48;99409.09;4909179;28;122386;-90
2022/02/01 12:07:22;;;;;;;41.35;7.28;;;;;;;12.22;67.80;99371.03;4909044;28;121042;-91
2022/02/01 12:09:47;;;;;;;46.60;8.02;;;;;;;12.53;67.97;99422.41;4890875;28;122707;-91
2022/02/01 12:12:14;;;;;;;41.33;7.60;;;;;;;12.37;67.14;99381.84;4928388;28;120205;-90
2022/02/01 12:14:40;;;;;;;37.78;6.60;;;;;;;12.59;67.12;99412.19;4905549;28;122276;-89
2022/02/01 12:17:06;;;;;;;44.08;7.38;;;;;;;12.26;66.51;99360.53;4909894;28;119624;-93
2022/02/01 12:19:37;;;;;;;39.47;7.43;;;;;;;12.47;67.82;99381.13;4893857;28;122089;-94
2022/02/01 12:22:30;;;;;;;42.83;7.60;;;;;;;12.56;66.98;99385.69;4892638;28;123513;-94
2022/02/01 12:25:10;;;;;;;43.53;7.43;;;;;;;12.43;66.46;99385.38;4914223;28;120097;-94
2022/02/01 12:27:38;;;;;;;34.25;7.07;;;;;;;12.48;66.27;99399.13;4922592;28;122044;-91
2022/02/01 12:30:07;;;;;;;36.25;7.45;;;;;;;12.49;65.98;99377.88;4922610;28;122289;-94
2022/02/01 12:32:33;;;;;;;38.08;8.05;;;;;;;12.50;66.15;99376.63;4928769;28;122304;-96
2022/02/01 12:34:59;;;;;;;38.72;7.35;;;;;;;12.46;66.12;99381.63;4895166;28;123570;-96
2022/02/01 12:37:25;;;;;;;35.45;7.20;;;;;;;12.46;66.72;99362.38;4911488;28;119642;-95